createdAt,value
2022-10-02T00:02:35.662Z,4.93
2022-10-02T00:05:26.127Z,3.63
2022-10-02T00:08:19.761Z,4.77
2022-10-02T00:11:14.915Z,4.03
2022-10-02T00:14:04.903Z,5.80
2022-10-02T00:16:55.232Z,3.50
2022-10-02T00:19:44.090Z,4.00
2022-10-02T00:22:39.312Z,4.90
2022-10-02T00:25:30.534Z,5.20
2022-10-02T00:28:24.453Z,6.03
2022-10-02T00:31:22.291Z,6.43
2022-10-02T00:34:21.566Z,5.37
2022-10-02T00:37:16.007Z,6.57
2022-10-02T00:40:11.522Z,6.23
2022-10-02T00:43:04.951Z,5.30
2022-10-02T00:46:09.922Z,6.20
2022-10-02T00:49:06.768Z,5.60
2022-10-02T00:52:02.868Z,5.87
2022-10-02T00:55:05.061Z,5.93
2022-10-02T00:58:00.688Z,6.20
2022-10-02T01:00:52.445Z,6.67
2022-10-02T01:03:43.065Z,6.93
2022-10-02T01:06:31.909Z,5.47
2022-10-02T01:09:20.825Z,6.57
2022-10-02T01:12:10.592Z,6.47
2022-10-02T01:14:59.434Z,5.80
2022-10-02T01:17:49.797Z,6.00
2022-10-02T01:20:42.544Z,6.63
2022-10-02T01:23:34.962Z,5.40
2022-10-02T01:26:25.184Z,6.73
2022-10-02T01:29:13.966Z,7.00
2022-10-02T01:32:03.064Z,5.80
2022-10-02T01:34:52.041Z,6.30
2022-10-02T01:37:42.663Z,7.40
2022-10-02T01:40:32.828Z,6.97
2022-10-02T01:43:25.936Z,6.80
2022-10-02T01:46:24.435Z,6.40
2022-10-02T01:49:30.999Z,5.53
2022-10-02T01:52:24.566Z,6.27
2022-10-02T01:55:20.058Z,6.50
2022-10-02T01:58:17.541Z,6.50
2022-10-02T02:01:13.109Z,5.50
2022-10-02T02:04:04.926Z,6.83
2022-10-02T02:06:57.483Z,6.83
2022-10-02T02:09:48.079Z,6.80
2022-10-02T02:12:41.902Z,6.57
2022-10-02T02:15:32.802Z,7.47
2022-10-02T02:18:27.020Z,7.00
2022-10-02T02:21:17.635Z,7.73
2022-10-02T02:24:09.263Z,8.70
2022-10-02T02:27:00.698Z,9.03
2022-10-02T02:29:51.641Z,8.13
2022-10-02T02:32:43.120Z,9.00
2022-10-02T02:35:36.218Z,9.43
2022-10-02T02:38:27.733Z,9.50
2022-10-02T02:41:19.032Z,9.73
2022-10-02T02:44:10.658Z,10.23
2022-10-02T02:47:07.386Z,8.53
2022-10-02T02:49:58.557Z,10.97
2022-10-02T02:52:50.815Z,8.30
2022-10-02T02:55:45.053Z,10.20
2022-10-02T02:58:36.791Z,9.50
2022-10-02T03:01:25.653Z,10.60
2022-10-02T03:04:15.269Z,8.23
2022-10-02T03:07:05.093Z,9.30
2022-10-02T03:10:07.848Z,7.13
2022-10-02T03:13:01.157Z,8.80
2022-10-02T03:15:53.538Z,7.80
2022-10-02T03:18:51.037Z,9.07
2022-10-02T03:21:42.994Z,9.60
2022-10-02T03:24:35.058Z,9.37
2022-10-02T03:27:34.025Z,9.70
2022-10-02T03:30:24.427Z,10.20
2022-10-02T03:33:14.817Z,8.50
2022-10-02T03:36:03.714Z,9.20
2022-10-02T03:39:19.884Z,8.63
2022-10-02T03:42:02.855Z,9.40
2022-10-02T03:44:53.038Z,10.27
2022-10-02T03:47:41.808Z,8.90
2022-10-02T03:50:34.134Z,8.30
2022-10-02T03:53:26.777Z,10.03
2022-10-02T03:56:19.415Z,10.53
2022-10-02T03:59:13.296Z,7.73
2022-10-02T04:02:05.226Z,5.13
2022-10-02T04:04:56.156Z,6.90
2022-10-02T04:07:51.739Z,6.20
2022-10-02T04:10:46.230Z,10.43
2022-10-02T04:13:36.671Z,8.67
2022-10-02T04:16:28.149Z,8.43
2022-10-02T04:19:22.480Z,8.37
2022-10-02T04:22:16.119Z,8.70
2022-10-02T04:25:06.903Z,6.03
2022-10-02T04:27:56.755Z,6.77
2022-10-02T04:30:45.607Z,6.90
2022-10-02T04:33:38.380Z,5.80
2022-10-02T04:36:34.451Z,7.37
2022-10-02T04:39:46.670Z,6.10
2022-10-02T04:42:47.519Z,6.00
2022-10-02T04:45:43.716Z,7.30
2022-10-02T04:48:50.492Z,5.90
2022-10-02T04:51:53.094Z,6.00
2022-10-02T04:54:49.106Z,5.70
2022-10-02T04:57:50.624Z,8.50
2022-10-02T05:00:44.414Z,9.30
2022-10-02T05:03:39.079Z,4.70
2022-10-02T05:06:36.019Z,5.30
2022-10-02T05:09:31.360Z,8.40
2022-10-02T05:12:28.648Z,7.60
2022-10-02T05:15:23.805Z,8.50
2022-10-02T05:18:23.521Z,8.30
2022-10-02T05:21:30.292Z,7.13
2022-10-02T05:24:27.777Z,7.97
2022-10-02T05:27:43.744Z,7.40
2022-10-02T05:30:36.935Z,9.60
2022-10-02T05:33:43.580Z,7.57
2022-10-02T05:36:42.042Z,8.00
2022-10-02T05:39:33.616Z,8.37
2022-10-02T05:42:25.358Z,7.43
2022-10-02T05:45:23.788Z,7.20
2022-10-02T05:48:17.438Z,6.13
2022-10-02T05:51:09.926Z,6.30
2022-10-02T05:54:02.860Z,6.73
2022-10-02T05:56:55.450Z,6.90
2022-10-02T05:59:46.741Z,6.83
2022-10-02T06:02:39.723Z,7.10
2022-10-02T06:05:31.922Z,6.93
2022-10-02T06:08:22.474Z,7.10
2022-10-02T06:11:13.379Z,5.33
2022-10-02T06:14:07.343Z,7.40
2022-10-02T06:16:59.009Z,4.17
2022-10-02T06:19:52.680Z,3.70
2022-10-02T06:22:43.788Z,4.00
2022-10-02T06:25:33.833Z,2.97
2022-10-02T06:28:25.202Z,5.03
2022-10-02T06:31:17.596Z,3.73
2022-10-02T06:34:06.449Z,2.97
2022-10-02T06:37:00.692Z,2.63
2022-10-02T06:39:57.154Z,2.43
2022-10-02T06:42:50.898Z,2.50
2022-10-02T06:45:42.500Z,2.87
2022-10-02T06:48:40.880Z,2.97
2022-10-02T06:51:36.052Z,2.80
2022-10-02T06:54:41.334Z,2.33
2022-10-02T06:57:36.943Z,6.13
2022-10-02T07:00:26.442Z,3.30
2022-10-02T07:03:30.563Z,3.50
2022-10-02T07:06:25.941Z,2.80
2022-10-02T07:09:32.763Z,2.60
2022-10-02T07:12:28.498Z,3.10
2022-10-02T07:15:26.166Z,2.80
2022-10-02T07:18:21.238Z,3.43
2022-10-02T07:21:14.158Z,3.23
2022-10-02T07:24:10.467Z,3.20
2022-10-02T07:27:03.892Z,3.27
2022-10-02T07:29:56.460Z,4.70
2022-10-02T07:32:48.735Z,3.03
2022-10-02T07:35:42.331Z,4.20
2022-10-02T07:38:44.728Z,3.90
2022-10-02T07:41:49.395Z,4.27
2022-10-02T07:44:47.789Z,4.33
2022-10-02T07:47:50.811Z,3.63
2022-10-02T07:50:47.414Z,6.57
2022-10-02T07:53:39.894Z,5.07
2022-10-02T07:56:29.326Z,4.33
2022-10-02T07:59:19.014Z,4.73
2022-10-02T08:02:09.499Z,5.00
2022-10-02T08:04:59.428Z,5.57
2022-10-02T08:07:50.882Z,4.27
2022-10-02T08:10:43.384Z,5.13
2022-10-02T08:13:35.362Z,5.70
2022-10-02T08:16:26.266Z,4.53
2022-10-02T08:19:16.874Z,3.90
2022-10-02T08:22:10.051Z,3.87
2022-10-02T08:25:04.377Z,4.43
2022-10-02T08:27:57.001Z,6.30
2022-10-02T08:30:45.898Z,4.43
2022-10-02T08:33:34.790Z,6.40
2022-10-02T08:36:37.431Z,6.80
2022-10-02T08:39:53.863Z,5.00
2022-10-02T08:43:00.348Z,6.60
2022-10-02T08:46:10.680Z,5.67
2022-10-02T08:49:17.524Z,6.23
2022-10-02T08:52:25.335Z,5.27
2022-10-02T08:55:44.020Z,6.67
2022-10-02T08:58:46.190Z,6.53
2022-10-02T09:01:46.000Z,5.00
2022-10-02T09:04:49.805Z,6.00
2022-10-02T09:07:50.688Z,6.03
2022-10-02T09:10:52.395Z,6.50
2022-10-02T09:14:02.636Z,7.10
2022-10-02T09:17:06.131Z,5.97
2022-10-02T09:20:07.437Z,7.57
2022-10-02T09:23:13.111Z,6.83
2022-10-02T09:26:05.848Z,5.97
2022-10-02T09:29:15.623Z,7.60
2022-10-02T09:32:28.654Z,6.57
2022-10-02T09:35:33.215Z,5.53
2022-10-02T09:38:40.434Z,5.67
2022-10-02T09:41:50.543Z,5.57
2022-10-02T09:45:07.219Z,5.03
2022-10-02T09:48:12.647Z,5.53
2022-10-02T09:51:31.787Z,4.27
2022-10-02T09:54:38.520Z,4.40
2022-10-02T09:57:45.416Z,4.80
2022-10-02T10:00:42.050Z,4.23
2022-10-02T10:03:45.847Z,3.70
2022-10-02T10:06:48.084Z,4.93
2022-10-02T10:09:52.511Z,3.90
2022-10-02T10:12:59.863Z,3.30
2022-10-02T10:16:08.049Z,3.93
2022-10-02T10:19:15.729Z,3.83
2022-10-02T10:22:21.243Z,3.40
2022-10-02T10:25:20.831Z,3.13
2022-10-02T10:28:27.741Z,4.23
2022-10-02T10:31:34.381Z,3.33
2022-10-02T10:34:42.916Z,3.90
2022-10-02T10:37:59.261Z,3.42
2022-10-02T10:40:56.531Z,3.15
2022-10-02T10:44:00.246Z,2.67
2022-10-02T10:47:00.893Z,2.83
2022-10-02T10:50:03.988Z,3.13
2022-10-02T10:53:03.936Z,2.75
2022-10-02T10:56:13.449Z,3.03
2022-10-02T10:59:35.407Z,2.55
2022-10-02T11:02:40.205Z,1.83
2022-10-02T11:05:50.028Z,3.03
2022-10-02T11:08:48.986Z,1.90
2022-10-02T11:11:42.008Z,2.38
2022-10-02T11:14:37.262Z,2.50
2022-10-02T11:17:38.230Z,2.17
2022-10-02T11:20:33.268Z,2.22
2022-10-02T11:23:30.120Z,2.22
2022-10-02T11:26:28.332Z,2.40
2022-10-02T11:29:30.924Z,2.53
2022-10-02T11:32:31.674Z,2.20
2022-10-02T11:35:26.371Z,2.47
2022-10-02T11:38:22.833Z,2.55
2022-10-02T11:41:21.651Z,1.98
2022-10-02T11:44:16.144Z,2.20
2022-10-02T11:47:15.277Z,1.90
2022-10-02T11:50:25.821Z,2.25
2022-10-02T11:53:23.936Z,1.90
2022-10-02T11:56:22.175Z,1.60
2022-10-02T11:59:23.028Z,1.60
2022-10-02T12:02:16.686Z,1.40
2022-10-02T12:05:15.518Z,2.50
2022-10-02T12:08:09.484Z,1.70
2022-10-02T12:11:00.394Z,1.77
2022-10-02T12:14:02.163Z,1.43
2022-10-02T12:16:58.770Z,1.77
2022-10-02T12:20:12.997Z,1.70
2022-10-02T12:23:23.101Z,1.30
2022-10-02T12:26:45.487Z,1.83
2022-10-02T12:30:04.204Z,1.80
2022-10-02T12:33:10.446Z,2.70
2022-10-02T12:36:14.165Z,1.60
2022-10-02T12:39:10.018Z,1.40
2022-10-02T12:42:11.532Z,1.60
2022-10-02T12:45:15.251Z,1.40
2022-10-02T12:48:15.885Z,1.53
2022-10-02T12:51:21.003Z,1.40
2022-10-02T12:54:33.643Z,1.60
2022-10-02T12:57:44.314Z,1.77
2022-10-02T13:00:41.023Z,2.53
2022-10-02T13:03:46.892Z,2.08
2022-10-02T13:06:49.710Z,1.90
2022-10-02T13:09:44.848Z,2.67
2022-10-02T13:12:42.559Z,1.90
2022-10-02T13:15:37.125Z,1.42
2022-10-02T13:18:33.074Z,2.13
2022-10-02T13:21:25.023Z,1.90
2022-10-02T13:24:23.910Z,1.83
2022-10-02T13:27:19.127Z,1.20
2022-10-02T13:30:14.404Z,2.20
2022-10-02T13:33:11.128Z,2.57
2022-10-02T13:36:09.791Z,1.40
2022-10-02T13:39:08.965Z,2.20
2022-10-02T13:42:06.548Z,1.60
2022-10-02T13:45:01.932Z,1.70
2022-10-02T13:47:58.801Z,1.97
2022-10-02T13:50:54.218Z,1.60
2022-10-02T13:53:50.121Z,1.60
2022-10-02T13:56:45.135Z,1.30
2022-10-02T13:59:41.296Z,1.90
2022-10-02T14:02:41.999Z,2.00
2022-10-02T14:05:38.987Z,1.53
2022-10-02T14:08:32.478Z,1.43
2022-10-02T14:11:29.787Z,1.63
2022-10-02T14:14:24.465Z,1.80
2022-10-02T14:17:18.581Z,1.33
2022-10-02T14:20:19.680Z,2.03
2022-10-02T14:23:18.183Z,1.53
2022-10-02T14:26:11.015Z,2.00
2022-10-02T14:29:15.563Z,1.77
2022-10-02T14:32:12.007Z,1.73
2022-10-02T14:35:09.678Z,2.03
2022-10-02T14:38:17.423Z,1.80
2022-10-02T14:41:13.912Z,2.23
2022-10-02T14:44:10.618Z,1.57
2022-10-02T14:47:14.559Z,2.00
2022-10-02T14:50:21.297Z,1.27
2022-10-02T14:53:16.373Z,1.80
2022-10-02T14:56:32.189Z,1.95
2022-10-02T14:59:29.296Z,2.00
2022-10-02T15:02:47.157Z,2.13
2022-10-02T15:05:41.366Z,1.40
2022-10-02T15:08:33.578Z,2.33
2022-10-02T15:11:26.605Z,1.92
2022-10-02T15:14:19.364Z,1.53
2022-10-02T15:17:28.394Z,2.77
2022-10-02T15:20:22.549Z,1.37
2022-10-02T15:23:12.416Z,1.40
2022-10-02T15:26:14.568Z,1.30
2022-10-02T15:29:10.689Z,1.57
2022-10-02T15:32:18.095Z,1.63
2022-10-02T15:35:24.817Z,2.07
2022-10-02T15:38:22.871Z,1.80
2022-10-02T15:41:32.449Z,1.97
2022-10-02T15:44:37.358Z,2.90
2022-10-02T15:47:38.167Z,4.00
2022-10-02T15:50:34.813Z,2.40
2022-10-02T15:53:37.659Z,2.23
2022-10-02T15:56:40.407Z,1.97
2022-10-02T15:59:37.277Z,1.50
2022-10-02T16:02:32.771Z,1.60
2022-10-02T16:05:29.342Z,2.10
2022-10-02T16:08:42.009Z,2.00
2022-10-02T16:11:49.368Z,1.30
2022-10-02T16:14:43.190Z,1.40
2022-10-02T16:17:48.579Z,1.40
2022-10-02T16:20:55.790Z,1.57
2022-10-02T16:24:07.512Z,0.90
2022-10-02T16:27:08.993Z,2.30
2022-10-02T16:30:05.259Z,1.70
2022-10-02T16:33:07.620Z,1.60
2022-10-02T16:36:11.280Z,1.63
2022-10-02T16:39:06.016Z,2.30
2022-10-02T16:42:01.749Z,2.53
2022-10-02T16:45:11.304Z,1.20
2022-10-02T16:48:07.767Z,2.87
2022-10-02T16:51:16.066Z,2.17
2022-10-02T16:54:10.897Z,2.70
2022-10-02T16:57:01.600Z,2.40
2022-10-02T16:59:52.111Z,2.47
2022-10-02T17:02:44.880Z,3.90
2022-10-02T17:05:38.287Z,4.07
2022-10-02T17:08:30.952Z,9.50
2022-10-02T17:11:22.860Z,6.10
2022-10-02T17:14:15.098Z,3.90
2022-10-02T17:17:06.134Z,3.80
2022-10-02T17:19:55.842Z,3.53
2022-10-02T17:22:52.078Z,4.00
2022-10-02T17:25:45.076Z,4.27
2022-10-02T17:28:37.833Z,3.30
2022-10-02T17:31:34.603Z,2.47
2022-10-02T17:34:24.637Z,2.47
2022-10-02T17:37:33.539Z,3.30
2022-10-02T17:40:26.302Z,3.43
2022-10-02T17:43:23.962Z,3.47
2022-10-02T17:46:25.826Z,5.03
2022-10-02T17:49:19.915Z,6.20
2022-10-02T17:52:34.505Z,4.13
2022-10-02T17:55:58.567Z,4.47
2022-10-02T17:58:55.807Z,4.17
2022-10-02T18:01:47.115Z,3.63
2022-10-02T18:04:41.394Z,3.97
2022-10-02T18:07:39.663Z,3.80
2022-10-02T18:10:31.438Z,4.27
2022-10-02T18:13:28.384Z,4.20
2022-10-02T18:16:29.586Z,9.13
2022-10-02T18:19:24.746Z,6.80
2022-10-02T18:22:32.044Z,5.77
2022-10-02T18:25:38.510Z,5.63
2022-10-02T18:28:48.110Z,5.97
2022-10-02T18:31:56.283Z,6.80
2022-10-02T18:34:53.488Z,6.27
2022-10-02T18:37:57.051Z,6.50
2022-10-02T18:40:54.264Z,7.57
2022-10-02T18:43:51.685Z,6.50
2022-10-02T18:46:49.378Z,5.67
2022-10-02T18:49:46.655Z,6.70
2022-10-02T18:52:46.104Z,6.10
2022-10-02T18:55:45.580Z,6.50
2022-10-02T18:58:42.654Z,6.63
2022-10-02T19:01:40.589Z,8.13
2022-10-02T19:04:45.316Z,6.67
2022-10-02T19:07:41.608Z,7.37
2022-10-02T19:10:42.781Z,6.37
2022-10-02T19:13:31.804Z,6.20
2022-10-02T19:16:25.193Z,6.10
2022-10-02T19:19:18.395Z,5.17
2022-10-02T19:22:11.402Z,5.87
2022-10-02T19:25:07.417Z,5.97
2022-10-02T19:27:56.498Z,5.20
2022-10-02T19:30:48.071Z,5.53
2022-10-02T19:33:43.565Z,5.00
2022-10-02T19:36:33.738Z,6.07
2022-10-02T19:39:25.325Z,5.63
2022-10-02T19:42:17.094Z,5.47
2022-10-02T19:45:08.128Z,5.70
2022-10-02T19:47:59.640Z,5.47
2022-10-02T19:50:51.279Z,6.27
2022-10-02T19:53:42.059Z,6.87
2022-10-02T19:56:33.391Z,6.70
2022-10-02T19:59:26.655Z,6.03
2022-10-02T20:02:17.642Z,5.90
2022-10-02T20:05:07.529Z,5.67
2022-10-02T20:08:00.907Z,6.23
2022-10-02T20:10:56.364Z,6.13
2022-10-02T20:13:48.338Z,4.70
2022-10-02T20:16:56.409Z,4.63
2022-10-02T20:19:51.651Z,4.67
2022-10-02T20:22:42.480Z,4.43
2022-10-02T20:25:32.847Z,4.30
2022-10-02T20:28:25.973Z,4.93
2022-10-02T20:31:17.588Z,5.60
2022-10-02T20:34:11.316Z,5.27
2022-10-02T20:37:05.248Z,4.77
2022-10-02T20:40:00.022Z,5.33
2022-10-02T20:42:56.993Z,4.87
2022-10-02T20:45:47.414Z,5.17
2022-10-02T20:49:07.514Z,5.13
2022-10-02T20:52:21.231Z,4.07
2022-10-02T20:55:12.298Z,5.30
2022-10-02T20:58:19.639Z,5.03
2022-10-02T21:01:16.321Z,4.63
2022-10-02T21:04:20.465Z,5.63
2022-10-02T21:07:21.779Z,5.20
2022-10-02T21:10:29.225Z,6.13
2022-10-02T21:13:36.966Z,5.93
2022-10-02T21:16:34.185Z,5.30
2022-10-02T21:19:31.744Z,5.23
2022-10-02T21:22:35.434Z,5.80
2022-10-02T21:25:35.248Z,5.70
2022-10-02T21:28:43.535Z,7.97
2022-10-02T21:31:38.833Z,5.80
2022-10-02T21:34:32.620Z,5.00
2022-10-02T21:37:25.742Z,5.57
2022-10-02T21:40:31.242Z,6.77
2022-10-02T21:43:41.376Z,6.00
2022-10-02T21:46:51.221Z,6.10
2022-10-02T21:49:55.043Z,5.90
2022-10-02T21:52:58.713Z,5.70
2022-10-02T21:56:02.351Z,4.40
2022-10-02T21:59:08.851Z,4.53
2022-10-02T22:02:09.645Z,4.97
2022-10-02T22:05:17.381Z,5.10
2022-10-02T22:08:12.336Z,4.63
2022-10-02T22:11:06.178Z,5.33
2022-10-02T22:13:56.722Z,5.03
2022-10-02T22:16:51.655Z,4.43
2022-10-02T22:19:50.280Z,4.90
2022-10-02T22:22:47.733Z,4.70
2022-10-02T22:25:45.465Z,5.80
2022-10-02T22:28:38.766Z,4.07
2022-10-02T22:31:46.653Z,5.00
2022-10-02T22:34:38.894Z,5.00
2022-10-02T22:37:45.954Z,5.53
2022-10-02T22:40:42.119Z,4.57
2022-10-02T22:43:32.517Z,5.17
2022-10-02T22:46:24.596Z,4.77
2022-10-02T22:49:18.020Z,4.77
2022-10-02T22:52:10.749Z,5.77
2022-10-02T22:55:05.043Z,5.50
2022-10-02T22:57:58.734Z,5.10
2022-10-02T23:00:59.111Z,6.50
2022-10-02T23:03:49.813Z,5.47
2022-10-02T23:06:43.018Z,5.57
2022-10-02T23:09:38.506Z,5.80
2022-10-02T23:12:37.946Z,5.80
2022-10-02T23:15:31.442Z,5.70
2022-10-02T23:18:26.728Z,6.50
2022-10-02T23:21:23.224Z,5.53
2022-10-02T23:24:19.159Z,5.10
2022-10-02T23:27:12.211Z,5.40
2022-10-02T23:30:04.962Z,5.90
2022-10-02T23:32:57.006Z,5.97
2022-10-02T23:35:50.536Z,5.53
2022-10-02T23:38:44.488Z,4.80
2022-10-02T23:41:40.337Z,5.13
2022-10-02T23:44:33.340Z,4.50
2022-10-02T23:47:29.168Z,5.30
2022-10-02T23:50:22.694Z,4.70
2022-10-02T23:53:22.607Z,6.03
2022-10-02T23:56:23.596Z,6.90
2022-10-02T23:59:26.224Z,5.10
